createdAt,value
2023-03-25T00:00:16.051Z,96972.88
2023-03-25T00:02:48.147Z,96970.97
2023-03-25T00:05:18.276Z,96973.69
2023-03-25T00:07:48.211Z,96958.25
2023-03-25T00:10:15.342Z,96960.28
2023-03-25T00:12:45.454Z,96962.34
2023-03-25T00:15:13.596Z,96954.56
2023-03-25T00:17:40.410Z,96956.56
2023-03-25T00:20:10.003Z,96946.31
2023-03-25T00:22:40.821Z,96937.16
2023-03-25T00:25:10.795Z,96935.94
2023-03-25T00:27:38.150Z,96940.00
2023-03-25T00:30:06.438Z,96941.31
2023-03-25T00:32:33.393Z,96936.66
2023-03-25T00:35:00.265Z,96923.25
2023-03-25T00:37:27.134Z,96925.16
2023-03-25T00:39:53.924Z,96926.34
2023-03-25T00:42:26.129Z,96926.63
2023-03-25T00:44:54.099Z,96926.75
2023-03-25T00:47:21.963Z,96923.63
2023-03-25T00:49:50.648Z,96924.56
2023-03-25T00:52:18.245Z,96917.97
2023-03-25T00:54:45.826Z,96916.88
2023-03-25T00:57:14.862Z,96922.06
2023-03-25T00:59:41.621Z,96922.91
2023-03-25T01:02:09.241Z,96921.25
2023-03-25T01:04:41.507Z,96932.78
2023-03-25T01:07:09.527Z,96931.13
2023-03-25T01:09:36.666Z,96947.56
2023-03-25T01:12:03.458Z,96928.44
2023-03-25T01:14:30.292Z,96931.84
2023-03-25T01:16:59.876Z,96912.19
2023-03-25T01:19:26.851Z,96915.59
2023-03-25T01:21:53.953Z,96905.59
2023-03-25T01:24:20.677Z,96914.06
2023-03-25T01:26:47.418Z,96902.69
2023-03-25T01:29:18.170Z,96909.91
2023-03-25T01:31:45.432Z,96912.19
2023-03-25T01:34:13.382Z,96901.13
2023-03-25T01:36:41.393Z,96908.50
2023-03-25T01:39:08.923Z,96909.94
2023-03-25T01:41:48.953Z,96913.63
2023-03-25T01:44:22.483Z,96913.75
2023-03-25T01:46:53.269Z,96910.72
2023-03-25T01:49:40.621Z,96910.84
2023-03-25T01:52:21.201Z,96902.50
2023-03-25T01:54:52.076Z,96905.09
2023-03-25T01:57:22.158Z,96901.13
2023-03-25T01:59:52.870Z,96894.41
2023-03-25T02:02:22.597Z,96889.34
2023-03-25T02:05:01.799Z,96889.47
2023-03-25T02:07:32.894Z,96877.47
2023-03-25T02:10:04.816Z,96880.88
2023-03-25T02:12:31.557Z,96873.09
2023-03-25T02:15:02.837Z,96878.41
2023-03-25T02:17:52.139Z,96878.16
2023-03-25T02:20:40.511Z,96885.13
2023-03-25T02:24:14.015Z,96885.13
2023-03-25T02:27:13.967Z,96889.63
2023-03-25T02:30:10.895Z,96899.16
2023-03-25T02:32:46.498Z,96902.56
2023-03-25T02:36:07.098Z,96900.66
2023-03-25T02:39:05.501Z,96901.50
2023-03-25T02:41:53.237Z,96905.50
2023-03-25T02:44:58.592Z,96894.59
2023-03-25T02:47:33.349Z,96901.41
2023-03-25T02:50:11.336Z,96911.66
2023-03-25T02:52:46.102Z,96909.34
2023-03-25T02:55:17.730Z,96902.09
2023-03-25T02:57:50.073Z,96905.63
2023-03-25T03:00:23.807Z,96898.06
2023-03-25T03:03:01.564Z,96898.91
2023-03-25T03:05:39.389Z,96904.09
2023-03-25T03:08:43.788Z,96905.31
2023-03-25T03:11:23.962Z,96903.78
2023-03-25T03:14:15.208Z,96896.28
2023-03-25T03:17:13.991Z,96900.75
2023-03-25T03:19:56.060Z,96893.91
2023-03-25T03:22:46.773Z,96893.91
2023-03-25T03:25:49.029Z,96890.63
2023-03-25T03:28:22.501Z,96889.94
2023-03-25T03:31:10.535Z,96891.59
2023-03-25T03:33:50.583Z,96893.91
2023-03-25T03:36:27.380Z,96895.81
2023-03-25T03:39:07.261Z,96903.47
2023-03-25T03:41:41.214Z,96891.44
2023-03-25T03:44:15.345Z,96903.72
2023-03-25T03:46:54.587Z,96900.06
2023-03-25T03:49:29.922Z,96896.78
2023-03-25T03:52:27.935Z,96908.66
2023-03-25T03:55:10.516Z,96901.69
2023-03-25T03:57:45.640Z,96902.41
2023-03-25T04:00:25.776Z,96904.75
2023-03-25T04:02:58.894Z,96883.53
2023-03-25T04:05:30.700Z,96895.56
2023-03-25T04:08:29.097Z,96895.00
2023-03-25T04:11:05.371Z,96911.63
2023-03-25T04:13:39.355Z,96905.75
2023-03-25T04:16:07.276Z,96906.72
2023-03-25T04:18:34.019Z,96912.72
2023-03-25T04:21:01.554Z,96917.66
2023-03-25T04:23:33.971Z,96920.50
2023-03-25T04:26:02.787Z,96929.59
2023-03-25T04:28:31.674Z,96935.84
2023-03-25T04:31:00.568Z,96923.97
2023-03-25T04:33:31.882Z,96934.81
2023-03-25T04:36:01.741Z,96929.75
2023-03-25T04:38:29.377Z,96928.50
2023-03-25T04:40:56.159Z,96927.47
2023-03-25T04:43:22.988Z,96937.03
2023-03-25T04:45:54.604Z,96954.38
2023-03-25T04:48:30.413Z,96941.81
2023-03-25T04:51:00.176Z,96932.78
2023-03-25T04:53:28.201Z,96928.63
2023-03-25T04:55:56.280Z,96927.63
2023-03-25T04:58:23.286Z,96929.41
2023-03-25T05:00:52.623Z,96953.16
2023-03-25T05:03:24.216Z,96944.94
2023-03-25T05:05:52.819Z,96939.63
2023-03-25T05:08:21.518Z,96948.47
2023-03-25T05:10:49.477Z,96961.19
2023-03-25T05:13:16.674Z,96950.69
2023-03-25T05:15:43.395Z,96957.59
2023-03-25T05:18:13.939Z,96971.84
2023-03-25T05:20:44.532Z,96967.72
2023-03-25T05:23:17.641Z,96971.72
2023-03-25T05:25:50.687Z,96971.72
2023-03-25T05:28:18.978Z,96975.50
2023-03-25T05:30:47.468Z,96975.25
2023-03-25T05:33:17.558Z,96984.69
2023-03-25T05:35:45.269Z,96983.97
2023-03-25T05:38:13.568Z,96986.56
2023-03-25T05:40:40.351Z,96989.97
2023-03-25T05:43:07.714Z,96998.44
2023-03-25T05:45:37.680Z,97003.28
2023-03-25T05:48:05.098Z,97001.78
2023-03-25T05:50:31.926Z,97016.50
2023-03-25T05:52:59.735Z,97012.94
2023-03-25T05:55:27.474Z,97012.81
2023-03-25T05:57:54.344Z,97017.75
2023-03-25T06:00:21.490Z,97012.69
2023-03-25T06:02:50.957Z,97024.19
2023-03-25T06:05:18.062Z,97017.75
2023-03-25T06:07:47.440Z,97028.25
2023-03-25T06:10:18.613Z,97034.00
2023-03-25T06:12:47.404Z,97031.53
2023-03-25T06:15:28.733Z,97034.38
2023-03-25T06:17:57.018Z,97041.66
2023-03-25T06:20:23.802Z,97034.09
2023-03-25T06:22:50.881Z,97035.28
2023-03-25T06:25:21.147Z,97031.38
2023-03-25T06:27:50.699Z,97032.72
2023-03-25T06:30:20.751Z,97033.72
2023-03-25T06:32:52.354Z,97031.38
2023-03-25T06:35:20.535Z,97025.13
2023-03-25T06:37:49.710Z,97027.59
2023-03-25T06:40:17.155Z,97028.06
2023-03-25T06:42:44.148Z,97022.50
2023-03-25T06:45:12.608Z,97018.97
2023-03-25T06:47:39.569Z,97023.78
2023-03-25T06:50:07.295Z,97018.78
2023-03-25T06:52:34.086Z,97023.00
2023-03-25T06:55:00.786Z,97019.91
2023-03-25T06:57:27.516Z,97031.41
2023-03-25T06:59:54.235Z,97020.44
2023-03-25T07:02:20.980Z,97030.28
2023-03-25T07:04:47.689Z,97007.88
2023-03-25T07:07:14.497Z,97012.81
2023-03-25T07:09:41.235Z,97016.44
2023-03-25T07:12:09.185Z,97012.88
2023-03-25T07:14:36.254Z,97008.25
2023-03-25T07:17:03.052Z,97017.19
2023-03-25T07:19:29.822Z,97024.44
2023-03-25T07:21:56.518Z,97016.31
2023-03-25T07:24:23.324Z,97014.97
2023-03-25T07:26:50.125Z,97024.84
2023-03-25T07:29:16.861Z,97015.44
2023-03-25T07:31:43.698Z,97014.25
2023-03-25T07:34:10.571Z,97024.38
2023-03-25T07:36:37.337Z,97019.44
2023-03-25T07:39:04.243Z,97019.66
2023-03-25T07:41:30.964Z,97030.88
2023-03-25T07:43:57.712Z,97040.16
2023-03-25T07:46:24.608Z,97046.44
2023-03-25T07:48:51.436Z,97044.44
2023-03-25T07:51:18.154Z,97046.22
2023-03-25T07:53:46.302Z,97055.13
2023-03-25T07:56:14.104Z,97057.72
2023-03-25T07:58:41.896Z,97050.25
2023-03-25T08:01:08.801Z,97059.03
2023-03-25T08:03:35.669Z,97046.44
2023-03-25T08:06:02.786Z,97048.91
2023-03-25T08:08:30.099Z,97045.81
2023-03-25T08:10:57.121Z,97043.25
2023-03-25T08:13:24.423Z,97042.59
2023-03-25T08:15:51.971Z,97031.38
2023-03-25T08:18:19.229Z,97040.16
2023-03-25T08:20:46.638Z,97035.09
2023-03-25T08:23:19.644Z,97030.84
2023-03-25T08:25:49.485Z,97039.44
2023-03-25T08:28:22.330Z,97020.03
2023-03-25T08:30:54.700Z,97034.53
2023-03-25T08:33:33.902Z,97031.09
2023-03-25T08:36:01.686Z,97039.47
2023-03-25T08:38:33.904Z,97032.09
2023-03-25T08:41:03.048Z,97054.78
2023-03-25T08:43:29.785Z,97022.75
2023-03-25T08:45:56.585Z,97039.16
2023-03-25T08:48:24.554Z,97030.81
2023-03-25T08:50:51.340Z,97030.72
2023-03-25T08:53:18.126Z,97026.72
2023-03-25T08:55:44.905Z,97028.78
2023-03-25T08:58:12.306Z,97024.69
2023-03-25T09:00:39.054Z,97013.53
2023-03-25T09:03:06.181Z,97014.44
2023-03-25T09:05:33.111Z,97033.34
2023-03-25T09:07:59.924Z,97010.41
2023-03-25T09:10:27.117Z,97018.09
2023-03-25T09:12:53.957Z,96994.34
2023-03-25T09:15:21.095Z,97006.53
2023-03-25T09:17:48.010Z,96976.97
2023-03-25T09:20:15.380Z,96994.03
2023-03-25T09:22:42.445Z,96991.53
2023-03-25T09:25:09.753Z,96986.84
2023-03-25T09:27:37.161Z,96983.47
2023-03-25T09:30:07.207Z,96998.13
2023-03-25T09:32:34.263Z,96978.94
2023-03-25T09:35:01.142Z,97000.16
2023-03-25T09:37:27.851Z,96990.00
2023-03-25T09:39:54.590Z,96992.63
2023-03-25T09:42:51.327Z,96989.38
2023-03-25T09:45:51.590Z,96992.91
2023-03-25T09:48:39.177Z,96996.50
2023-03-25T09:51:12.348Z,97005.19
2023-03-25T09:53:55.494Z,96991.78
2023-03-25T09:56:30.693Z,96995.94
2023-03-25T09:59:15.920Z,96987.28
2023-03-25T10:02:16.890Z,96991.56
2023-03-25T10:05:13.109Z,97000.31
2023-03-25T10:07:54.932Z,96985.47
2023-03-25T10:10:28.819Z,96962.59
2023-03-25T10:14:03.716Z,96968.53
2023-03-25T10:17:00.466Z,96959.84
2023-03-25T10:20:09.022Z,96967.22
2023-03-25T10:23:17.881Z,96964.88
2023-03-25T10:25:49.883Z,96956.34
2023-03-25T10:28:26.319Z,96946.72
2023-03-25T10:30:54.905Z,96954.75
2023-03-25T10:33:41.352Z,96943.25
2023-03-25T10:36:19.194Z,96950.47
2023-03-25T10:38:54.341Z,96950.81
2023-03-25T10:41:35.674Z,96949.94
2023-03-25T10:44:09.101Z,96945.25
2023-03-25T10:46:56.757Z,96944.97
2023-03-25T10:49:30.630Z,96937.09
2023-03-25T10:51:59.529Z,96942.88
2023-03-25T10:54:33.937Z,96943.41
2023-03-25T10:57:08.407Z,96946.16
2023-03-25T11:00:06.389Z,96941.09
2023-03-25T11:02:34.079Z,96922.00
2023-03-25T11:05:07.323Z,96922.34
2023-03-25T11:07:41.519Z,96935.69
2023-03-25T11:10:32.313Z,96935.16
2023-03-25T11:13:03.770Z,96923.31
2023-03-25T11:15:35.086Z,96923.59
2023-03-25T11:18:16.887Z,96939.53
2023-03-25T11:20:52.107Z,96952.97
2023-03-25T11:23:47.515Z,96999.75
2023-03-25T11:26:30.069Z,97038.69
2023-03-25T11:29:05.383Z,97016.72
2023-03-25T11:31:37.380Z,96998.56
2023-03-25T11:34:20.365Z,96981.31
2023-03-25T11:36:59.220Z,96987.72
2023-03-25T11:39:37.249Z,96998.03
2023-03-25T11:42:32.421Z,96981.75
2023-03-25T11:45:02.215Z,96990.59
2023-03-25T11:47:41.011Z,96993.84
2023-03-25T11:50:20.199Z,96985.53
2023-03-25T11:52:51.894Z,96976.38
2023-03-25T11:55:44.985Z,96966.19
2023-03-25T11:58:21.660Z,96948.38
2023-03-25T12:00:51.165Z,96948.81
2023-03-25T12:03:23.120Z,96944.19
2023-03-25T12:06:14.763Z,96954.59
2023-03-25T12:08:59.280Z,96944.66
2023-03-25T12:11:48.672Z,96937.00
2023-03-25T12:14:39.016Z,96947.03
2023-03-25T12:17:29.045Z,96938.06
2023-03-25T12:20:20.472Z,96933.75
2023-03-25T12:23:10.318Z,96933.16
2023-03-25T12:25:58.496Z,96912.56
2023-03-25T12:28:44.740Z,96905.75
2023-03-25T12:31:51.705Z,96905.59
2023-03-25T12:34:59.820Z,96909.06
2023-03-25T12:38:05.809Z,96898.13
2023-03-25T12:41:08.892Z,96894.25
2023-03-25T12:44:06.796Z,96884.25
2023-03-25T12:47:06.590Z,96888.69
2023-03-25T12:49:49.025Z,96889.78
2023-03-25T12:52:56.836Z,96885.88
2023-03-25T12:56:01.168Z,96892.03
2023-03-25T12:58:56.130Z,96878.84
2023-03-25T13:01:42.779Z,96888.41
2023-03-25T13:04:40.314Z,96863.88
2023-03-25T13:07:24.039Z,96869.81
2023-03-25T13:10:03.755Z,96878.13
2023-03-25T13:12:43.082Z,96863.00
2023-03-25T13:15:37.266Z,96860.59
2023-03-25T13:18:27.224Z,96911.06
2023-03-25T13:21:24.096Z,96918.91
2023-03-25T13:24:02.504Z,96920.53
2023-03-25T13:26:32.161Z,96930.72
2023-03-25T13:29:06.913Z,96892.22
2023-03-25T13:31:41.033Z,96907.22
2023-03-25T13:34:39.919Z,96912.72
2023-03-25T13:37:23.233Z,96925.31
2023-03-25T13:40:25.937Z,96910.50
2023-03-25T13:43:04.455Z,96912.97
2023-03-25T13:46:24.276Z,96927.91
2023-03-25T13:49:22.523Z,96921.88
2023-03-25T13:51:49.486Z,96908.56
2023-03-25T13:54:43.092Z,96898.09
2023-03-25T13:57:43.862Z,96892.81
2023-03-25T14:00:55.823Z,96904.72
2023-03-25T14:03:45.972Z,96895.41
2023-03-25T14:06:44.958Z,96889.00
2023-03-25T14:09:49.275Z,96897.81
2023-03-25T14:12:42.583Z,96898.06
2023-03-25T14:15:26.460Z,96964.38
2023-03-25T14:17:55.961Z,96939.81
2023-03-25T14:20:33.100Z,96952.75
2023-03-25T14:23:07.628Z,96944.50
2023-03-25T14:25:53.457Z,96916.50
2023-03-25T14:28:40.223Z,96920.19
2023-03-25T14:31:23.379Z,96920.31
2023-03-25T14:34:02.295Z,96900.16
2023-03-25T14:36:39.570Z,96900.16
2023-03-25T14:39:32.782Z,96897.91
2023-03-25T14:42:06.597Z,96895.06
2023-03-25T14:44:41.767Z,96878.03
2023-03-25T14:47:20.483Z,96883.25
2023-03-25T14:50:06.287Z,96881.13
2023-03-25T14:52:43.176Z,96873.41
2023-03-25T14:55:28.654Z,96879.63
2023-03-25T14:58:04.956Z,96887.13
2023-03-25T15:00:44.330Z,96882.06
2023-03-25T15:03:18.568Z,96889.84
2023-03-25T15:05:57.554Z,96881.16
2023-03-25T15:08:42.801Z,96868.06
2023-03-25T15:11:24.932Z,96877.13
2023-03-25T15:13:59.538Z,96872.38
2023-03-25T15:16:48.155Z,96874.03
2023-03-25T15:19:18.618Z,96870.66
2023-03-25T15:21:57.636Z,96869.06
2023-03-25T15:24:35.319Z,96876.84
2023-03-25T15:27:25.048Z,96890.88
2023-03-25T15:30:31.829Z,96873.19
2023-03-25T15:33:17.370Z,96875.44
2023-03-25T15:35:58.361Z,96884.44
2023-03-25T15:39:10.955Z,96879.50
2023-03-25T15:42:03.864Z,96885.81
2023-03-25T15:44:45.396Z,96878.22
2023-03-25T15:47:51.872Z,96868.19
2023-03-25T15:50:40.535Z,96884.59
2023-03-25T15:53:41.851Z,96881.41
2023-03-25T15:56:29.546Z,96870.44
2023-03-25T15:59:24.795Z,96875.72
2023-03-25T16:01:52.882Z,96875.84
2023-03-25T16:04:39.528Z,96875.22
2023-03-25T16:07:12.414Z,96855.34
2023-03-25T16:09:45.965Z,96869.13
2023-03-25T16:12:19.604Z,96870.03
2023-03-25T16:14:47.223Z,96871.66
2023-03-25T16:17:14.781Z,96859.53
2023-03-25T16:19:49.021Z,96866.69
2023-03-25T16:22:32.676Z,96865.31
2023-03-25T16:25:14.501Z,96858.78
2023-03-25T16:27:50.803Z,96862.81
2023-03-25T16:30:28.942Z,96872.03
2023-03-25T16:33:08.076Z,96868.41
2023-03-25T16:35:40.225Z,96869.03
2023-03-25T16:38:08.685Z,96869.03
2023-03-25T16:40:41.582Z,96869.22
2023-03-25T16:43:27.184Z,96865.66
2023-03-25T16:46:00.119Z,96866.25
2023-03-25T16:48:42.605Z,96871.13
2023-03-25T16:51:23.320Z,96874.16
2023-03-25T16:53:55.692Z,96873.50
2023-03-25T16:56:29.465Z,96864.75
2023-03-25T16:59:08.119Z,96872.31
2023-03-25T17:01:50.435Z,96866.09
2023-03-25T17:04:26.249Z,96884.44
2023-03-25T17:07:21.150Z,96889.50
2023-03-25T17:09:59.446Z,96904.47
2023-03-25T17:12:28.636Z,96898.25
2023-03-25T17:15:08.744Z,96908.09
2023-03-25T17:17:47.085Z,96910.53
2023-03-25T17:20:28.207Z,96906.88
2023-03-25T17:23:01.243Z,96905.19
2023-03-25T17:25:35.467Z,96901.53
2023-03-25T17:28:39.786Z,96911.59
2023-03-25T17:31:29.753Z,96918.47
2023-03-25T17:34:06.895Z,96926.16
2023-03-25T17:36:41.526Z,96929.88
2023-03-25T17:39:30.063Z,96931.00
2023-03-25T17:42:04.365Z,96934.56
2023-03-25T17:44:37.494Z,96939.38
2023-03-25T17:47:07.069Z,96933.47
2023-03-25T17:49:34.329Z,96936.94
2023-03-25T17:52:01.223Z,96943.34
2023-03-25T17:54:28.031Z,96932.56
2023-03-25T17:56:54.785Z,96940.66
2023-03-25T17:59:25.794Z,96942.16
2023-03-25T18:01:53.536Z,96939.97
2023-03-25T18:04:21.044Z,96938.84
2023-03-25T18:06:48.626Z,96933.41
2023-03-25T18:09:34.140Z,96928.88
2023-03-25T18:12:01.222Z,96924.75
2023-03-25T18:14:28.225Z,96935.72
2023-03-25T18:16:56.222Z,96938.97
2023-03-25T18:19:27.520Z,96937.91
2023-03-25T18:21:54.921Z,96935.13
2023-03-25T18:24:22.593Z,96930.72
2023-03-25T18:26:50.073Z,96938.63
2023-03-25T18:29:28.193Z,96940.09
2023-03-25T18:31:55.333Z,96939.50
2023-03-25T18:34:24.477Z,96941.25
2023-03-25T18:36:53.160Z,96927.84
2023-03-25T18:39:26.546Z,96929.16
2023-03-25T18:41:53.497Z,96935.44
2023-03-25T18:44:20.350Z,96944.19
2023-03-25T18:46:47.171Z,96931.09
2023-03-25T18:49:18.313Z,96940.66
2023-03-25T18:51:48.147Z,96933.13
2023-03-25T18:54:15.370Z,96939.28
2023-03-25T18:56:42.674Z,96946.47
2023-03-25T18:59:14.922Z,96939.78
2023-03-25T19:01:42.291Z,96941.13
2023-03-25T19:04:09.298Z,96961.31
2023-03-25T19:06:38.947Z,96958.97
2023-03-25T19:09:08.808Z,96955.69
2023-03-25T19:11:35.720Z,96959.22
2023-03-25T19:14:02.546Z,96962.34
2023-03-25T19:16:29.327Z,96957.41
2023-03-25T19:18:56.132Z,96967.34
2023-03-25T19:21:22.959Z,96969.38
2023-03-25T19:23:51.956Z,96968.69
2023-03-25T19:26:18.729Z,96970.69
2023-03-25T19:28:45.669Z,96969.75
2023-03-25T19:31:18.975Z,96978.34
2023-03-25T19:33:45.984Z,96980.25
2023-03-25T19:36:18.800Z,96977.53
2023-03-25T19:38:45.859Z,96981.53
2023-03-25T19:41:17.807Z,96976.78
2023-03-25T19:43:44.584Z,96982.84
2023-03-25T19:46:11.845Z,96977.25
2023-03-25T19:48:38.616Z,96973.59
2023-03-25T19:51:05.897Z,96969.81
2023-03-25T19:53:32.609Z,96972.56
2023-03-25T19:56:05.361Z,96969.47
2023-03-25T19:58:34.389Z,96965.63
2023-03-25T20:01:01.516Z,96967.75
2023-03-25T20:03:31.333Z,96967.59
2023-03-25T20:06:00.636Z,96963.16
2023-03-25T20:08:29.808Z,96975.84
2023-03-25T20:10:58.104Z,96976.13
2023-03-25T20:13:25.422Z,96983.78
2023-03-25T20:15:53.123Z,96987.56
2023-03-25T20:18:20.429Z,96992.22
2023-03-25T20:20:47.481Z,97010.56
2023-03-25T20:23:14.339Z,97021.66
2023-03-25T20:25:41.257Z,97007.88
2023-03-25T20:28:08.077Z,96997.63
2023-03-25T20:30:35.492Z,96986.41
2023-03-25T20:33:03.048Z,96997.75
2023-03-25T20:35:31.648Z,96993.75
2023-03-25T20:37:58.675Z,97001.72
2023-03-25T20:40:37.455Z,97002.00
2023-03-25T20:43:09.547Z,97003.78
2023-03-25T20:45:36.315Z,97009.09
2023-03-25T20:48:03.736Z,97010.75
2023-03-25T20:50:30.577Z,97034.66
2023-03-25T20:52:57.293Z,97033.44
2023-03-25T20:55:24.060Z,97032.22
2023-03-25T20:57:51.836Z,97035.75
2023-03-25T21:00:19.471Z,97039.03
2023-03-25T21:02:47.823Z,97044.06
2023-03-25T21:05:14.672Z,97044.88
2023-03-25T21:07:41.501Z,97045.00
2023-03-25T21:10:09.581Z,97033.25
2023-03-25T21:12:43.995Z,97052.88
2023-03-25T21:15:14.528Z,97042.28
2023-03-25T21:17:42.062Z,97022.81
2023-03-25T21:20:09.873Z,97024.16
2023-03-25T21:22:44.915Z,97027.97
2023-03-25T21:25:18.131Z,97017.81
2023-03-25T21:27:46.436Z,97023.88
2023-03-25T21:30:14.958Z,97013.09
2023-03-25T21:32:42.081Z,97023.50
2023-03-25T21:35:09.653Z,97027.69
2023-03-25T21:37:38.806Z,97021.47
2023-03-25T21:40:10.347Z,97017.72
2023-03-25T21:42:38.638Z,97017.28
2023-03-25T21:45:07.928Z,97023.66
2023-03-25T21:47:35.868Z,97027.56
2023-03-25T21:50:09.808Z,97028.50
2023-03-25T21:52:46.682Z,97029.72
2023-03-25T21:55:15.902Z,97021.03
2023-03-25T21:57:44.673Z,97019.75
2023-03-25T22:00:16.988Z,97027.03
2023-03-25T22:02:45.878Z,97028.50
2023-03-25T22:05:15.457Z,97028.25
2023-03-25T22:07:42.606Z,97026.13
2023-03-25T22:10:10.591Z,97027.31
2023-03-25T22:12:37.609Z,97029.47
2023-03-25T22:15:04.931Z,97029.59
2023-03-25T22:17:31.683Z,97036.53
2023-03-25T22:19:58.398Z,97023.66
2023-03-25T22:22:25.216Z,97031.56
2023-03-25T22:24:52.046Z,97037.69
2023-03-25T22:27:18.947Z,97030.88
2023-03-25T22:29:45.711Z,97042.53
2023-03-25T22:32:12.503Z,97028.16
2023-03-25T22:34:42.546Z,97023.34
2023-03-25T22:37:09.330Z,97027.13
2023-03-25T22:39:37.870Z,97025.47
2023-03-25T22:42:04.785Z,97032.41
2023-03-25T22:44:31.634Z,97036.66
2023-03-25T22:46:58.397Z,97035.84
2023-03-25T22:49:25.517Z,97025.25
2023-03-25T22:51:52.424Z,97035.34
2023-03-25T22:54:19.378Z,97033.72
2023-03-25T22:56:46.331Z,97038.88
2023-03-25T22:59:15.348Z,97040.25
2023-03-25T23:01:42.737Z,97042.75
2023-03-25T23:04:09.816Z,97029.19
2023-03-25T23:06:37.464Z,97024.50
2023-03-25T23:09:08.100Z,97024.75
2023-03-25T23:11:36.647Z,97036.75
2023-03-25T23:14:12.865Z,97022.50
2023-03-25T23:16:41.468Z,97012.41
2023-03-25T23:19:09.665Z,97015.94
2023-03-25T23:21:36.523Z,97027.34
2023-03-25T23:24:04.643Z,97029.69
2023-03-25T23:26:40.843Z,97035.00
2023-03-25T23:29:11.575Z,97038.16
2023-03-25T23:31:42.058Z,97033.69
2023-03-25T23:34:14.987Z,97027.56
2023-03-25T23:36:43.034Z,97014.63
2023-03-25T23:39:15.302Z,97018.84
2023-03-25T23:41:42.683Z,97012.72
2023-03-25T23:44:09.577Z,97015.81
2023-03-25T23:46:36.969Z,97025.22
2023-03-25T23:49:03.830Z,97027.94
2023-03-25T23:51:36.256Z,97016.63
2023-03-25T23:54:05.570Z,97024.16
2023-03-25T23:56:32.734Z,97026.50
2023-03-25T23:59:00.775Z,97030.84
